Details From CYUL - Montreal Pierre E Trudeau Intl
To UHMA - Ugolny
Flight Number -
Tags Generated
Created
Modified
Stats Distance 3,404 nm / 6,304 km
Max Altitude 0 ft / 0 m
Waypoints 5
Social Downloads 3
Likes 0
Share VATSIM

Download

Looking for another format? Having issues loading an existing format? Contact us
Advertisement - Login to hide

Notes

Generated

Route

CYUL FOLEL COPOX UHMA UHMA

ID Type Via Altitude Latitude Longitude Leg Dist Tot Dist Heading (true) Name
O CYUL APT - 0 ft / 0 m 45.46250˚ -73.76500˚ - 0 nm - -
FOLEL FIX - 0 ft / 0 m 70.22578˚ -144.12728˚ 2484 nm 2484 nm 331° / 268° -
COPOX FIX - 0 ft / 0 m 68.47558˚ -166.35644˚ 479 nm 2963 nm 268° / 247° -
UHMA FIX - 0 ft / 0 m 64.73500˚ 177.73833˚ 438 nm 3402 nm 247° / 232° -
O UHMA APT - 0 ft / 0 m 64.71979˚ 177.73219˚ 0 nm 3403 nm 190° / 190° -

Altitude Profile

Advertisement - Login to hide

Weather


0- 5 10 15 20 25 30 35+ Temperature / ° C

Clouds and Precipitation
Forecast for 2017-12-15 18:00 UTC. Updated 37 minutes ago

Ground ~20,000 ft ~40,000 ft Winds

CYUL

Details ICAO CYUL (YUL)
Name Montreal Pierre E Trudeau Intl
Region Canada
Timezone America/Montreal (UTC-5.0)
Stats Elevation 117 ft / 36 m (AMSL)
Location 45.467269° -73.744028°
Runways 3
Magnetic Variation 14.322° W

METAR

CYUL 151500Z 27002KT 30SM OVC060 M16/M20 A3002 RMK SC8 SLP170

Decode

TAF

TAF CYUL 151438Z 1515/1612 25005KT P6SM BKN060 BECMG 1515/1517 08007KT FM151900 05007KT P6SM BKN040 BKN120 TEMPO 1519/1606 6SM -SN FM160600 02007KT 11/2SM -SN BKN015 OVC030 FM161100 35005KT 4SM -SN BKN020 OVC080 RMK NXT FCST BY 151800Z

Decode

Departure Runways

ID Width Length Bearing (true) Bearing (mag) Surface Threshold Offset Overrun Length
06L 200 ft / 61 m 11,020 ft / 3,359 m 42.62° 56.94° Asphalt 0 ft / 0 m 0 ft / 0 m
06R 200 ft / 61 m 9,706 ft / 2,958 m 41.23° 55.55° Asphalt 0 ft / 0 m 0 ft / 0 m
10 200 ft / 61 m 6,831 ft / 2,082 m 87.45° 101.77° Asphalt 0 ft / 0 m 0 ft / 0 m
24L 200 ft / 61 m 9,706 ft / 2,958 m 221.25° 235.57° Asphalt 0 ft / 0 m 0 ft / 0 m
24R 200 ft / 61 m 11,020 ft / 3,359 m 222.64° 236.96° Asphalt 0 ft / 0 m 0 ft / 0 m
28 200 ft / 61 m 6,831 ft / 2,082 m 267.47° 281.79° Asphalt 0 ft / 0 m 0 ft / 0 m

UHMA

Details ICAO UHMA (DYR)
Name UGOLNY
Region Russia
Timezone Asia/Anadyr (UTC+12.0)
Stats Elevation 194 ft / 59 m (AMSL)
Location 64.734950° 177.741483°
Runways 1
Magnetic Variation 1.432° E

METAR

UHMA 151500Z 02004MPS 9999 -SN SCT013 BKN026 OVC080 M19/M21 Q0999 RMK END R01/36004MPS QFE746/0995

Decode

TAF

TAF UHMA 151355Z 1515/1615 02007MPS 4000 BR SCT007 BKN020 TEMPO 1518/1615 34007G12MPS 1000 -SN BR VV003

Decode

Destination Runways

ID Width Length Bearing (true) Bearing (mag) Surface Threshold Offset Overrun Length
01 197 ft / 60 m 11,439 ft / 3,487 m 14.65° 13.22° Concrete 0 ft / 0 m 240 ft / 73 m
19 197 ft / 60 m 11,439 ft / 3,487 m 194.66° 193.23° Concrete 0 ft / 0 m 240 ft / 73 m